sensor_id;sensor_type;location;lat;lon;timestamp;temperature;humidity
2106;DHT22;1059;52.548;13.408;2022-11-20T00:01:27;1.10;99.90
2106;DHT22;1059;52.548;13.408;2022-11-20T00:03:56;1.10;99.90
2106;DHT22;1059;52.548;13.408;2022-11-20T00:06:25;1.10;99.90
2106;DHT22;1059;52.548;13.408;2022-11-20T00:08:54;1.10;99.90
2106;DHT22;1059;52.548;13.408;2022-11-20T00:11:23;1.10;99.90
2106;DHT22;1059;52.548;13.408;2022-11-20T00:13:52;1.10;99.90
2106;DHT22;1059;52.548;13.408;2022-11-20T00:16:21;1.10;99.90
2106;DHT22;1059;52.548;13.408;2022-11-20T00:18:49;1.00;99.90
2106;DHT22;1059;52.548;13.408;2022-11-20T00:21:18;1.00;99.90
2106;DHT22;1059;52.548;13.408;2022-11-20T00:23:47;1.00;99.90
2106;DHT22;1059;52.548;13.408;2022-11-20T00:26:17;1.00;99.90
2106;DHT22;1059;52.548;13.408;2022-11-20T00:28:48;1.00;99.90
2106;DHT22;1059;52.548;13.408;2022-11-20T00:31:16;1.00;99.90
2106;DHT22;1059;52.548;13.408;2022-11-20T00:33:43;1.00;99.90
2106;DHT22;1059;52.548;13.408;2022-11-20T00:36:13;1.00;99.90
2106;DHT22;1059;52.548;13.408;2022-11-20T00:38:40;1.00;99.90
2106;DHT22;1059;52.548;13.408;2022-11-20T00:41:10;1.00;99.90
2106;DHT22;1059;52.548;13.408;2022-11-20T00:43:37;1.10;99.90
2106;DHT22;1059;52.548;13.408;2022-11-20T00:46:06;1.10;99.90
2106;DHT22;1059;52.548;13.408;2022-11-20T00:48:34;1.00;99.90
2106;DHT22;1059;52.548;13.408;2022-11-20T00:51:01;1.00;99.90
2106;DHT22;1059;52.548;13.408;2022-11-20T00:53:28;1.10;99.90
2106;DHT22;1059;52.548;13.408;2022-11-20T00:55:55;1.10;99.90
2106;DHT22;1059;52.548;13.408;2022-11-20T00:58:25;1.10;99.90
2106;DHT22;1059;52.548;13.408;2022-11-20T01:01:00;1.00;99.90
2106;DHT22;1059;52.548;13.408;2022-11-20T01:03:27;1.00;99.90
2106;DHT22;1059;52.548;13.408;2022-11-20T01:05:54;1.00;99.90
2106;DHT22;1059;52.548;13.408;2022-11-20T01:08:28;1.00;99.90
2106;DHT22;1059;52.548;13.408;2022-11-20T01:10:59;1.00;99.90
2106;DHT22;1059;52.548;13.408;2022-11-20T01:13:27;1.00;99.90
2106;DHT22;1059;52.548;13.408;2022-11-20T01:16:05;1.00;99.90
2106;DHT22;1059;52.548;13.408;2022-11-20T01:18:33;1.00;99.90
2106;DHT22;1059;52.548;13.408;2022-11-20T01:21:01;1.00;99.90
2106;DHT22;1059;52.548;13.408;2022-11-20T01:23:31;1.10;99.90
2106;DHT22;1059;52.548;13.408;2022-11-20T01:26:00;1.10;99.90
2106;DHT22;1059;52.548;13.408;2022-11-20T01:28:29;1.10;99.90
2106;DHT22;1059;52.548;13.408;2022-11-20T01:30:56;1.10;99.90
2106;DHT22;1059;52.548;13.408;2022-11-20T01:33:27;1.10;99.90
2106;DHT22;1059;52.548;13.408;2022-11-20T01:36:03;1.10;99.90
2106;DHT22;1059;52.548;13.408;2022-11-20T01:38:30;1.10;99.90
2106;DHT22;1059;52.548;13.408;2022-11-20T01:40:57;1.10;99.90
2106;DHT22;1059;52.548;13.408;2022-11-20T01:43:25;1.10;99.90
2106;DHT22;1059;52.548;13.408;2022-11-20T01:46:15;1.10;99.90
2106;DHT22;1059;52.548;13.408;2022-11-20T01:48:47;1.10;99.90
2106;DHT22;1059;52.548;13.408;2022-11-20T01:51:23;1.10;99.90
2106;DHT22;1059;52.548;13.408;2022-11-20T01:53:53;1.10;99.90
2106;DHT22;1059;52.548;13.408;2022-11-20T01:56:21;1.10;99.90
2106;DHT22;1059;52.548;13.408;2022-11-20T01:58:51;1.20;99.90
2106;DHT22;1059;52.548;13.408;2022-11-20T02:01:20;1.10;99.90
2106;DHT22;1059;52.548;13.408;2022-11-20T02:03:48;1.10;99.90
2106;DHT22;1059;52.548;13.408;2022-11-20T02:06:20;1.10;99.90
2106;DHT22;1059;52.548;13.408;2022-11-20T02:08:50;1.00;99.90
2106;DHT22;1059;52.548;13.408;2022-11-20T02:11:18;1.00;99.90
2106;DHT22;1059;52.548;13.408;2022-11-20T02:13:45;1.00;99.90
2106;DHT22;1059;52.548;13.408;2022-11-20T02:16:17;1.00;99.90
2106;DHT22;1059;52.548;13.408;2022-11-20T02:18:54;1.00;99.90
2106;DHT22;1059;52.548;13.408;2022-11-20T02:21:28;1.00;99.90
2106;DHT22;1059;52.548;13.408;2022-11-20T02:24:09;1.00;99.90
2106;DHT22;1059;52.548;13.408;2022-11-20T02:26:44;1.00;99.90
2106;DHT22;1059;52.548;13.408;2022-11-20T02:29:14;1.10;99.90
2106;DHT22;1059;52.548;13.408;2022-11-20T02:31:42;1.10;99.90
2106;DHT22;1059;52.548;13.408;2022-11-20T02:34:10;1.10;99.90
2106;DHT22;1059;52.548;13.408;2022-11-20T02:36:39;1.10;99.90
2106;DHT22;1059;52.548;13.408;2022-11-20T02:39:10;1.10;99.90
2106;DHT22;1059;52.548;13.408;2022-11-20T02:41:38;1.10;99.90
2106;DHT22;1059;52.548;13.408;2022-11-20T02:44:05;1.00;99.90
2106;DHT22;1059;52.548;13.408;2022-11-20T02:46:33;1.00;99.90
2106;DHT22;1059;52.548;13.408;2022-11-20T02:49:01;1.10;99.90
2106;DHT22;1059;52.548;13.408;2022-11-20T02:51:28;1.00;99.90
2106;DHT22;1059;52.548;13.408;2022-11-20T02:53:55;1.00;99.90
2106;DHT22;1059;52.548;13.408;2022-11-20T02:56:23;1.00;99.90
2106;DHT22;1059;52.548;13.408;2022-11-20T02:58:51;1.00;99.90
2106;DHT22;1059;52.548;13.408;2022-11-20T03:01:18;1.00;99.90
2106;DHT22;1059;52.548;13.408;2022-11-20T03:03:45;1.00;99.90
2106;DHT22;1059;52.548;13.408;2022-11-20T03:06:14;1.00;99.90
2106;DHT22;1059;52.548;13.408;2022-11-20T03:08:41;1.00;99.90
2106;DHT22;1059;52.548;13.408;2022-11-20T03:11:08;1.00;99.90
2106;DHT22;1059;52.548;13.408;2022-11-20T03:13:37;1.00;99.90
2106;DHT22;1059;52.548;13.408;2022-11-20T03:16:08;1.00;99.90
2106;DHT22;1059;52.548;13.408;2022-11-20T03:18:37;1.00;99.90
2106;DHT22;1059;52.548;13.408;2022-11-20T03:21:04;1.00;99.90
2106;DHT22;1059;52.548;13.408;2022-11-20T03:23:32;1.00;99.90
2106;DHT22;1059;52.548;13.408;2022-11-20T03:26:14;1.00;99.90
2106;DHT22;1059;52.548;13.408;2022-11-20T03:28:46;1.00;99.90
2106;DHT22;1059;52.548;13.408;2022-11-20T03:31:16;1.00;99.90
2106;DHT22;1059;52.548;13.408;2022-11-20T03:33:44;1.00;99.90
2106;DHT22;1059;52.548;13.408;2022-11-20T03:36:12;1.00;99.90
2106;DHT22;1059;52.548;13.408;2022-11-20T03:38:40;0.90;99.90
2106;DHT22;1059;52.548;13.408;2022-11-20T03:41:09;0.90;99.90
2106;DHT22;1059;52.548;13.408;2022-11-20T03:43:36;0.90;99.90
2106;DHT22;1059;52.548;13.408;2022-11-20T03:46:05;0.90;99.90
2106;DHT22;1059;52.548;13.408;2022-11-20T03:48:33;0.90;99.90
2106;DHT22;1059;52.548;13.408;2022-11-20T03:51:08;0.90;99.90
2106;DHT22;1059;52.548;13.408;2022-11-20T03:53:35;0.90;99.90
2106;DHT22;1059;52.548;13.408;2022-11-20T03:56:02;0.90;99.90
2106;DHT22;1059;52.548;13.408;2022-11-20T03:58:30;0.90;99.90
2106;DHT22;1059;52.548;13.408;2022-11-20T04:00:57;0.90;99.90
2106;DHT22;1059;52.548;13.408;2022-11-20T04:03:25;0.90;99.90
2106;DHT22;1059;52.548;13.408;2022-11-20T04:05:52;0.90;99.90
2106;DHT22;1059;52.548;13.408;2022-11-20T04:08:19;0.90;99.90
2106;DHT22;1059;52.548;13.408;2022-11-20T04:10:46;0.90;99.90
2106;DHT22;1059;52.548;13.408;2022-11-20T04:13:13;0.90;99.90
2106;DHT22;1059;52.548;13.408;2022-11-20T04:15:40;0.90;99.90
2106;DHT22;1059;52.548;13.408;2022-11-20T04:18:07;1.00;99.90
2106;DHT22;1059;52.548;13.408;2022-11-20T04:20:35;1.00;99.90
2106;DHT22;1059;52.548;13.408;2022-11-20T04:23:02;1.00;99.90
2106;DHT22;1059;52.548;13.408;2022-11-20T04:25:29;1.00;99.90
2106;DHT22;1059;52.548;13.408;2022-11-20T04:27:56;1.00;99.90
2106;DHT22;1059;52.548;13.408;2022-11-20T04:30:23;0.90;99.90
2106;DHT22;1059;52.548;13.408;2022-11-20T04:32:49;0.90;99.90
2106;DHT22;1059;52.548;13.408;2022-11-20T04:35:16;0.90;99.90
2106;DHT22;1059;52.548;13.408;2022-11-20T04:37:45;0.90;99.90
2106;DHT22;1059;52.548;13.408;2022-11-20T04:40:12;0.90;99.90
2106;DHT22;1059;52.548;13.408;2022-11-20T04:42:39;0.90;99.90
2106;DHT22;1059;52.548;13.408;2022-11-20T04:45:06;0.90;99.90
2106;DHT22;1059;52.548;13.408;2022-11-20T04:47:33;0.90;99.90
2106;DHT22;1059;52.548;13.408;2022-11-20T04:50:00;0.90;99.90
2106;DHT22;1059;52.548;13.408;2022-11-20T04:52:27;0.90;99.90
2106;DHT22;1059;52.548;13.408;2022-11-20T04:54:55;0.90;99.90
2106;DHT22;1059;52.548;13.408;2022-11-20T04:57:22;0.90;99.90
2106;DHT22;1059;52.548;13.408;2022-11-20T04:59:49;0.90;99.90
2106;DHT22;1059;52.548;13.408;2022-11-20T05:02:16;1.00;99.90
2106;DHT22;1059;52.548;13.408;2022-11-20T05:04:43;0.90;99.90
2106;DHT22;1059;52.548;13.408;2022-11-20T05:07:10;0.90;99.90
2106;DHT22;1059;52.548;13.408;2022-11-20T05:09:37;0.90;99.90
2106;DHT22;1059;52.548;13.408;2022-11-20T05:12:07;0.90;99.90
2106;DHT22;1059;52.548;13.408;2022-11-20T05:14:34;0.90;99.90
2106;DHT22;1059;52.548;13.408;2022-11-20T05:17:01;0.90;99.90
2106;DHT22;1059;52.548;13.408;2022-11-20T05:19:28;0.90;99.90
2106;DHT22;1059;52.548;13.408;2022-11-20T05:21:55;0.90;99.90
2106;DHT22;1059;52.548;13.408;2022-11-20T05:24:22;0.90;99.90
2106;DHT22;1059;52.548;13.408;2022-11-20T05:26:49;0.90;99.90
2106;DHT22;1059;52.548;13.408;2022-11-20T05:29:17;0.90;99.90
2106;DHT22;1059;52.548;13.408;2022-11-20T05:31:44;0.90;99.90
2106;DHT22;1059;52.548;13.408;2022-11-20T05:34:11;0.90;99.90
2106;DHT22;1059;52.548;13.408;2022-11-20T05:36:38;0.90;99.90
2106;DHT22;1059;52.548;13.408;2022-11-20T05:39:05;0.90;99.90
2106;DHT22;1059;52.548;13.408;2022-11-20T05:41:33;1.00;99.90
2106;DHT22;1059;52.548;13.408;2022-11-20T05:44:00;1.00;99.90
2106;DHT22;1059;52.548;13.408;2022-11-20T05:46:28;1.00;99.90
2106;DHT22;1059;52.548;13.408;2022-11-20T05:48:55;1.00;99.90
2106;DHT22;1059;52.548;13.408;2022-11-20T05:51:23;1.00;99.90
2106;DHT22;1059;52.548;13.408;2022-11-20T05:53:50;1.00;99.90
2106;DHT22;1059;52.548;13.408;2022-11-20T05:56:18;1.00;99.90
2106;DHT22;1059;52.548;13.408;2022-11-20T05:58:46;1.00;99.90
2106;DHT22;1059;52.548;13.408;2022-11-20T06:01:15;1.00;99.90
2106;DHT22;1059;52.548;13.408;2022-11-20T06:03:44;1.00;99.90
2106;DHT22;1059;52.548;13.408;2022-11-20T06:06:13;1.00;99.90
2106;DHT22;1059;52.548;13.408;2022-11-20T06:08:40;1.10;99.90
2106;DHT22;1059;52.548;13.408;2022-11-20T06:11:09;1.10;99.90
2106;DHT22;1059;52.548;13.408;2022-11-20T06:13:37;1.10;99.90
2106;DHT22;1059;52.548;13.408;2022-11-20T06:16:04;1.10;99.90
2106;DHT22;1059;52.548;13.408;2022-11-20T06:18:31;1.10;99.90
2106;DHT22;1059;52.548;13.408;2022-11-20T06:21:05;1.10;99.90
2106;DHT22;1059;52.548;13.408;2022-11-20T06:23:33;1.10;99.90
2106;DHT22;1059;52.548;13.408;2022-11-20T06:26:02;1.10;99.90
2106;DHT22;1059;52.548;13.408;2022-11-20T06:28:29;1.20;99.90
2106;DHT22;1059;52.548;13.408;2022-11-20T06:30:56;1.20;99.90
2106;DHT22;1059;52.548;13.408;2022-11-20T06:33:24;1.10;99.90
2106;DHT22;1059;52.548;13.408;2022-11-20T06:35:51;1.20;99.90
2106;DHT22;1059;52.548;13.408;2022-11-20T06:38:19;1.20;99.90
2106;DHT22;1059;52.548;13.408;2022-11-20T06:40:46;1.20;99.90
2106;DHT22;1059;52.548;13.408;2022-11-20T06:43:13;1.20;99.90
2106;DHT22;1059;52.548;13.408;2022-11-20T06:45:40;1.20;99.90
2106;DHT22;1059;52.548;13.408;2022-11-20T06:48:08;1.20;99.90
2106;DHT22;1059;52.548;13.408;2022-11-20T06:50:36;1.20;99.90
2106;DHT22;1059;52.548;13.408;2022-11-20T06:53:04;1.20;99.90
2106;DHT22;1059;52.548;13.408;2022-11-20T06:55:32;1.10;99.90
2106;DHT22;1059;52.548;13.408;2022-11-20T06:57:59;1.10;99.90
2106;DHT22;1059;52.548;13.408;2022-11-20T07:00:26;1.10;99.90
2106;DHT22;1059;52.548;13.408;2022-11-20T07:02:53;1.10;99.90
2106;DHT22;1059;52.548;13.408;2022-11-20T07:05:20;1.10;99.90
2106;DHT22;1059;52.548;13.408;2022-11-20T07:07:47;1.10;99.90
2106;DHT22;1059;52.548;13.408;2022-11-20T07:10:14;1.10;99.90
2106;DHT22;1059;52.548;13.408;2022-11-20T07:12:48;1.10;99.90
2106;DHT22;1059;52.548;13.408;2022-11-20T07:15:15;1.10;99.90
2106;DHT22;1059;52.548;13.408;2022-11-20T07:17:42;1.10;99.90
2106;DHT22;1059;52.548;13.408;2022-11-20T07:20:10;1.10;99.90
2106;DHT22;1059;52.548;13.408;2022-11-20T07:22:37;1.10;99.90
2106;DHT22;1059;52.548;13.408;2022-11-20T07:25:04;1.20;99.90
2106;DHT22;1059;52.548;13.408;2022-11-20T07:27:32;1.10;99.90
2106;DHT22;1059;52.548;13.408;2022-11-20T07:30:00;1.10;99.90
2106;DHT22;1059;52.548;13.408;2022-11-20T07:32:27;1.10;99.90
2106;DHT22;1059;52.548;13.408;2022-11-20T07:34:54;1.10;99.90
2106;DHT22;1059;52.548;13.408;2022-11-20T07:37:21;1.10;99.90
2106;DHT22;1059;52.548;13.408;2022-11-20T07:39:48;1.10;99.90
2106;DHT22;1059;52.548;13.408;2022-11-20T07:42:15;1.10;99.90
2106;DHT22;1059;52.548;13.408;2022-11-20T07:44:42;1.10;99.90
2106;DHT22;1059;52.548;13.408;2022-11-20T07:47:10;1.10;99.90
2106;DHT22;1059;52.548;13.408;2022-11-20T07:49:37;1.10;99.90
2106;DHT22;1059;52.548;13.408;2022-11-20T07:52:04;1.10;99.90
2106;DHT22;1059;52.548;13.408;2022-11-20T07:54:31;1.10;99.90
2106;DHT22;1059;52.548;13.408;2022-11-20T07:56:58;1.10;99.90
2106;DHT22;1059;52.548;13.408;2022-11-20T07:59:24;1.00;99.90
2106;DHT22;1059;52.548;13.408;2022-11-20T08:01:51;1.00;99.90
2106;DHT22;1059;52.548;13.408;2022-11-20T08:04:20;1.00;99.90
2106;DHT22;1059;52.548;13.408;2022-11-20T08:06:47;1.00;99.90
2106;DHT22;1059;52.548;13.408;2022-11-20T08:09:14;1.00;99.90
2106;DHT22;1059;52.548;13.408;2022-11-20T08:11:41;0.90;99.90
2106;DHT22;1059;52.548;13.408;2022-11-20T08:14:25;0.90;99.90
2106;DHT22;1059;52.548;13.408;2022-11-20T08:16:53;0.90;99.90
2106;DHT22;1059;52.548;13.408;2022-11-20T08:19:21;0.90;99.90
2106;DHT22;1059;52.548;13.408;2022-11-20T08:21:48;0.90;99.90
2106;DHT22;1059;52.548;13.408;2022-11-20T08:24:15;0.80;99.90
2106;DHT22;1059;52.548;13.408;2022-11-20T08:26:42;0.90;99.90
2106;DHT22;1059;52.548;13.408;2022-11-20T08:29:09;0.90;99.90
2106;DHT22;1059;52.548;13.408;2022-11-20T08:31:36;0.90;99.90
2106;DHT22;1059;52.548;13.408;2022-11-20T08:34:03;0.90;99.90
2106;DHT22;1059;52.548;13.408;2022-11-20T08:36:33;0.90;99.90
2106;DHT22;1059;52.548;13.408;2022-11-20T08:39:00;0.90;99.90
2106;DHT22;1059;52.548;13.408;2022-11-20T08:41:27;0.90;99.90
2106;DHT22;1059;52.548;13.408;2022-11-20T08:43:59;0.90;99.90
2106;DHT22;1059;52.548;13.408;2022-11-20T08:46:30;0.80;99.90
2106;DHT22;1059;52.548;13.408;2022-11-20T08:48:58;0.90;99.90
2106;DHT22;1059;52.548;13.408;2022-11-20T08:51:25;0.90;99.90
2106;DHT22;1059;52.548;13.408;2022-11-20T08:53:53;0.90;99.90
2106;DHT22;1059;52.548;13.408;2022-11-20T08:56:20;0.90;99.90
2106;DHT22;1059;52.548;13.408;2022-11-20T08:58:49;0.90;99.90
2106;DHT22;1059;52.548;13.408;2022-11-20T09:01:16;1.00;99.90
2106;DHT22;1059;52.548;13.408;2022-11-20T09:03:43;1.00;99.90
2106;DHT22;1059;52.548;13.408;2022-11-20T09:06:10;1.00;99.90
2106;DHT22;1059;52.548;13.408;2022-11-20T09:08:37;1.10;99.90
2106;DHT22;1059;52.548;13.408;2022-11-20T09:11:06;1.10;99.90
2106;DHT22;1059;52.548;13.408;2022-11-20T09:13:34;1.10;99.90
2106;DHT22;1059;52.548;13.408;2022-11-20T09:16:04;1.10;99.90
2106;DHT22;1059;52.548;13.408;2022-11-20T09:18:31;1.00;99.90
2106;DHT22;1059;52.548;13.408;2022-11-20T09:21:00;1.00;99.90
2106;DHT22;1059;52.548;13.408;2022-11-20T09:23:30;1.00;99.90
2106;DHT22;1059;52.548;13.408;2022-11-20T09:25:58;1.00;99.90
2106;DHT22;1059;52.548;13.408;2022-11-20T09:28:29;1.00;99.90
2106;DHT22;1059;52.548;13.408;2022-11-20T09:30:56;1.00;99.90
2106;DHT22;1059;52.548;13.408;2022-11-20T09:33:23;1.00;99.90
2106;DHT22;1059;52.548;13.408;2022-11-20T09:35:50;1.10;99.90
2106;DHT22;1059;52.548;13.408;2022-11-20T09:38:18;1.10;99.90
2106;DHT22;1059;52.548;13.408;2022-11-20T09:40:49;1.10;99.90
2106;DHT22;1059;52.548;13.408;2022-11-20T09:43:22;1.20;99.90
2106;DHT22;1059;52.548;13.408;2022-11-20T09:46:03;1.20;99.90
2106;DHT22;1059;52.548;13.408;2022-11-20T09:48:53;1.20;99.90
2106;DHT22;1059;52.548;13.408;2022-11-20T09:51:29;1.20;99.90
2106;DHT22;1059;52.548;13.408;2022-11-20T09:54:09;1.30;99.90
2106;DHT22;1059;52.548;13.408;2022-11-20T09:56:42;1.30;99.90
2106;DHT22;1059;52.548;13.408;2022-11-20T09:59:18;1.30;99.90
2106;DHT22;1059;52.548;13.408;2022-11-20T10:01:48;1.40;99.90
2106;DHT22;1059;52.548;13.408;2022-11-20T10:04:17;1.40;99.90
2106;DHT22;1059;52.548;13.408;2022-11-20T10:06:50;1.40;99.90
2106;DHT22;1059;52.548;13.408;2022-11-20T10:09:22;1.50;99.90
2106;DHT22;1059;52.548;13.408;2022-11-20T10:12:04;1.50;99.90
2106;DHT22;1059;52.548;13.408;2022-11-20T10:14:42;1.50;99.90
2106;DHT22;1059;52.548;13.408;2022-11-20T10:17:23;1.60;99.90
2106;DHT22;1059;52.548;13.408;2022-11-20T10:20:07;1.50;99.90
2106;DHT22;1059;52.548;13.408;2022-11-20T10:22:46;1.60;99.90
2106;DHT22;1059;52.548;13.408;2022-11-20T10:25:16;1.60;99.90
2106;DHT22;1059;52.548;13.408;2022-11-20T10:28:06;1.50;99.90
2106;DHT22;1059;52.548;13.408;2022-11-20T10:30:37;1.50;99.90
2106;DHT22;1059;52.548;13.408;2022-11-20T10:33:11;1.50;99.90
2106;DHT22;1059;52.548;13.408;2022-11-20T10:35:42;1.50;99.90
2106;DHT22;1059;52.548;13.408;2022-11-20T10:38:16;1.40;99.90
2106;DHT22;1059;52.548;13.408;2022-11-20T10:40:46;1.40;99.90
2106;DHT22;1059;52.548;13.408;2022-11-20T10:43:17;1.50;99.90
2106;DHT22;1059;52.548;13.408;2022-11-20T10:45:50;1.50;99.90
2106;DHT22;1059;52.548;13.408;2022-11-20T10:48:22;1.60;99.90
2106;DHT22;1059;52.548;13.408;2022-11-20T10:51:03;1.70;99.90
2106;DHT22;1059;52.548;13.408;2022-11-20T10:53:43;1.70;99.90
2106;DHT22;1059;52.548;13.408;2022-11-20T10:56:17;1.80;99.90
2106;DHT22;1059;52.548;13.408;2022-11-20T10:58:54;1.90;99.90
2106;DHT22;1059;52.548;13.408;2022-11-20T11:01:22;2.00;99.90
2106;DHT22;1059;52.548;13.408;2022-11-20T11:03:51;2.10;99.90
2106;DHT22;1059;52.548;13.408;2022-11-20T11:06:25;2.30;99.90
2106;DHT22;1059;52.548;13.408;2022-11-20T11:08:58;2.40;99.90
2106;DHT22;1059;52.548;13.408;2022-11-20T11:11:28;2.60;99.90
2106;DHT22;1059;52.548;13.408;2022-11-20T11:14:04;2.60;99.90
2106;DHT22;1059;52.548;13.408;2022-11-20T11:16:32;2.60;99.90
2106;DHT22;1059;52.548;13.408;2022-11-20T11:19:11;2.50;99.90
2106;DHT22;1059;52.548;13.408;2022-11-20T11:21:38;2.40;99.90
2106;DHT22;1059;52.548;13.408;2022-11-20T11:24:23;2.30;99.90
2106;DHT22;1059;52.548;13.408;2022-11-20T11:26:53;2.20;99.90
2106;DHT22;1059;52.548;13.408;2022-11-20T11:29:21;2.10;99.90
2106;DHT22;1059;52.548;13.408;2022-11-20T11:31:49;2.10;99.90
2106;DHT22;1059;52.548;13.408;2022-11-20T11:34:17;2.10;99.90
2106;DHT22;1059;52.548;13.408;2022-11-20T11:36:54;2.10;99.90
2106;DHT22;1059;52.548;13.408;2022-11-20T11:39:23;2.20;99.90
2106;DHT22;1059;52.548;13.408;2022-11-20T11:41:51;2.10;99.90
2106;DHT22;1059;52.548;13.408;2022-11-20T11:44:20;2.10;99.90
2106;DHT22;1059;52.548;13.408;2022-11-20T11:47:09;2.10;99.90
2106;DHT22;1059;52.548;13.408;2022-11-20T11:49:39;2.10;99.90
2106;DHT22;1059;52.548;13.408;2022-11-20T11:52:12;2.10;99.90
2106;DHT22;1059;52.548;13.408;2022-11-20T11:54:45;2.10;99.90
2106;DHT22;1059;52.548;13.408;2022-11-20T11:57:20;2.10;99.90
2106;DHT22;1059;52.548;13.408;2022-11-20T12:00:00;2.10;99.90
2106;DHT22;1059;52.548;13.408;2022-11-20T12:02:34;2.00;99.90
2106;DHT22;1059;52.548;13.408;2022-11-20T12:05:12;1.90;99.90
2106;DHT22;1059;52.548;13.408;2022-11-20T12:07:45;1.80;99.90
2106;DHT22;1059;52.548;13.408;2022-11-20T12:10:17;1.70;99.90
2106;DHT22;1059;52.548;13.408;2022-11-20T12:12:50;1.70;99.90
2106;DHT22;1059;52.548;13.408;2022-11-20T12:15:26;1.70;99.90
2106;DHT22;1059;52.548;13.408;2022-11-20T12:17:55;1.70;99.90
2106;DHT22;1059;52.548;13.408;2022-11-20T12:20:27;1.70;99.90
2106;DHT22;1059;52.548;13.408;2022-11-20T12:23:01;1.70;99.90
2106;DHT22;1059;52.548;13.408;2022-11-20T12:25:34;1.70;99.90
2106;DHT22;1059;52.548;13.408;2022-11-20T12:28:16;1.80;99.90
2106;DHT22;1059;52.548;13.408;2022-11-20T12:30:54;1.80;99.90
2106;DHT22;1059;52.548;13.408;2022-11-20T12:33:38;1.80;99.90
2106;DHT22;1059;52.548;13.408;2022-11-20T12:36:17;1.90;99.90
2106;DHT22;1059;52.548;13.408;2022-11-20T12:41:51;2.10;99.90
2106;DHT22;1059;52.548;13.408;2022-11-20T12:45:12;2.20;99.90
2106;DHT22;1059;52.548;13.408;2022-11-20T12:48:03;2.20;99.90
2106;DHT22;1059;52.548;13.408;2022-11-20T12:50:45;2.20;99.90
2106;DHT22;1059;52.548;13.408;2022-11-20T12:53:25;2.40;99.90
2106;DHT22;1059;52.548;13.408;2022-11-20T12:56:03;3.00;99.90
2106;DHT22;1059;52.548;13.408;2022-11-20T12:58:39;3.70;99.90
2106;DHT22;1059;52.548;13.408;2022-11-20T13:01:24;4.40;99.90
2106;DHT22;1059;52.548;13.408;2022-11-20T13:04:18;5.40;99.90
2106;DHT22;1059;52.548;13.408;2022-11-20T13:06:50;6.20;99.90
2106;DHT22;1059;52.548;13.408;2022-11-20T13:09:20;6.20;99.90
2106;DHT22;1059;52.548;13.408;2022-11-20T13:11:53;5.80;99.90
2106;DHT22;1059;52.548;13.408;2022-11-20T13:14:30;5.60;99.90
2106;DHT22;1059;52.548;13.408;2022-11-20T13:17:05;5.00;99.90
2106;DHT22;1059;52.548;13.408;2022-11-20T13:19:33;4.80;99.90
2106;DHT22;1059;52.548;13.408;2022-11-20T13:22:00;4.80;99.90
2106;DHT22;1059;52.548;13.408;2022-11-20T13:24:30;4.50;99.90
2106;DHT22;1059;52.548;13.408;2022-11-20T13:27:16;4.10;99.90
2106;DHT22;1059;52.548;13.408;2022-11-20T13:29:47;3.70;99.90
2106;DHT22;1059;52.548;13.408;2022-11-20T13:32:26;3.30;99.90
2106;DHT22;1059;52.548;13.408;2022-11-20T13:34:58;3.10;99.90
2106;DHT22;1059;52.548;13.408;2022-11-20T13:37:29;2.90;99.90
2106;DHT22;1059;52.548;13.408;2022-11-20T13:40:19;2.80;99.90
2106;DHT22;1059;52.548;13.408;2022-11-20T13:43:00;2.50;99.90
2106;DHT22;1059;52.548;13.408;2022-11-20T13:45:29;2.30;99.90
2106;DHT22;1059;52.548;13.408;2022-11-20T13:47:57;2.20;99.90
2106;DHT22;1059;52.548;13.408;2022-11-20T13:50:39;2.10;99.90
2106;DHT22;1059;52.548;13.408;2022-11-20T13:53:16;2.10;99.90
2106;DHT22;1059;52.548;13.408;2022-11-20T13:55:54;2.10;99.90
2106;DHT22;1059;52.548;13.408;2022-11-20T13:58:30;2.00;99.90
2106;DHT22;1059;52.548;13.408;2022-11-20T14:01:09;1.90;99.90
2106;DHT22;1059;52.548;13.408;2022-11-20T14:03:38;1.80;99.90
2106;DHT22;1059;52.548;13.408;2022-11-20T14:06:11;1.80;99.90
2106;DHT22;1059;52.548;13.408;2022-11-20T14:08:42;1.70;99.90
2106;DHT22;1059;52.548;13.408;2022-11-20T14:11:18;1.70;99.90
2106;DHT22;1059;52.548;13.408;2022-11-20T14:13:59;1.70;99.90
2106;DHT22;1059;52.548;13.408;2022-11-20T14:16:29;1.70;99.90
2106;DHT22;1059;52.548;13.408;2022-11-20T14:19:00;1.70;99.90
2106;DHT22;1059;52.548;13.408;2022-11-20T14:21:43;1.70;99.90
2106;DHT22;1059;52.548;13.408;2022-11-20T14:24:11;1.60;99.90
2106;DHT22;1059;52.548;13.408;2022-11-20T14:26:42;1.60;99.90
2106;DHT22;1059;52.548;13.408;2022-11-20T14:29:12;1.60;99.90
2106;DHT22;1059;52.548;13.408;2022-11-20T14:31:40;1.60;99.90
2106;DHT22;1059;52.548;13.408;2022-11-20T14:34:13;1.60;99.90
2106;DHT22;1059;52.548;13.408;2022-11-20T14:36:43;1.50;99.90
2106;DHT22;1059;52.548;13.408;2022-11-20T14:39:11;1.50;99.90
2106;DHT22;1059;52.548;13.408;2022-11-20T14:41:50;1.50;99.90
2106;DHT22;1059;52.548;13.408;2022-11-20T14:44:18;1.50;99.90
2106;DHT22;1059;52.548;13.408;2022-11-20T14:46:46;1.50;99.90
2106;DHT22;1059;52.548;13.408;2022-11-20T14:49:13;1.50;99.90
2106;DHT22;1059;52.548;13.408;2022-11-20T14:51:41;1.50;99.90
2106;DHT22;1059;52.548;13.408;2022-11-20T14:54:09;1.50;99.90
2106;DHT22;1059;52.548;13.408;2022-11-20T14:56:36;1.50;99.90
2106;DHT22;1059;52.548;13.408;2022-11-20T14:59:05;1.50;99.90
2106;DHT22;1059;52.548;13.408;2022-11-20T15:01:33;1.60;99.90
2106;DHT22;1059;52.548;13.408;2022-11-20T15:04:04;1.60;99.90
2106;DHT22;1059;52.548;13.408;2022-11-20T15:06:31;1.70;99.90
2106;DHT22;1059;52.548;13.408;2022-11-20T15:08:59;1.70;99.90
2106;DHT22;1059;52.548;13.408;2022-11-20T15:11:29;1.70;99.90
2106;DHT22;1059;52.548;13.408;2022-11-20T15:13:57;1.80;99.90
2106;DHT22;1059;52.548;13.408;2022-11-20T15:16:26;1.80;99.90
2106;DHT22;1059;52.548;13.408;2022-11-20T15:18:53;1.80;99.90
2106;DHT22;1059;52.548;13.408;2022-11-20T15:21:20;1.70;99.90
2106;DHT22;1059;52.548;13.408;2022-11-20T15:23:48;1.80;99.90
2106;DHT22;1059;52.548;13.408;2022-11-20T15:26:20;1.70;99.90
2106;DHT22;1059;52.548;13.408;2022-11-20T15:28:48;1.70;99.90
2106;DHT22;1059;52.548;13.408;2022-11-20T15:31:17;1.70;99.90
2106;DHT22;1059;52.548;13.408;2022-11-20T15:33:46;1.60;99.90
2106;DHT22;1059;52.548;13.408;2022-11-20T15:36:13;1.60;99.90
2106;DHT22;1059;52.548;13.408;2022-11-20T15:38:40;1.60;99.90
2106;DHT22;1059;52.548;13.408;2022-11-20T15:41:07;1.60;99.90
2106;DHT22;1059;52.548;13.408;2022-11-20T15:43:35;1.60;99.90
2106;DHT22;1059;52.548;13.408;2022-11-20T15:46:03;1.60;99.90
2106;DHT22;1059;52.548;13.408;2022-11-20T15:48:34;1.60;99.90
2106;DHT22;1059;52.548;13.408;2022-11-20T15:51:06;1.60;99.90
2106;DHT22;1059;52.548;13.408;2022-11-20T15:53:39;1.60;99.90
2106;DHT22;1059;52.548;13.408;2022-11-20T15:56:09;1.60;99.90
2106;DHT22;1059;52.548;13.408;2022-11-20T15:58:37;1.70;99.90
2106;DHT22;1059;52.548;13.408;2022-11-20T16:01:04;1.70;99.90
2106;DHT22;1059;52.548;13.408;2022-11-20T16:03:31;1.70;99.90
2106;DHT22;1059;52.548;13.408;2022-11-20T16:05:58;1.60;99.90
2106;DHT22;1059;52.548;13.408;2022-11-20T16:08:26;1.60;99.90
2106;DHT22;1059;52.548;13.408;2022-11-20T16:10:53;1.60;99.90
2106;DHT22;1059;52.548;13.408;2022-11-20T16:13:20;1.50;99.90
2106;DHT22;1059;52.548;13.408;2022-11-20T16:16:18;1.50;99.90
2106;DHT22;1059;52.548;13.408;2022-11-20T16:18:46;1.50;99.90
2106;DHT22;1059;52.548;13.408;2022-11-20T16:21:13;1.40;99.90
2106;DHT22;1059;52.548;13.408;2022-11-20T16:23:42;1.40;99.90
2106;DHT22;1059;52.548;13.408;2022-11-20T16:26:10;1.40;99.90